createdAt,value
2022-12-18T00:00:28.072Z,0.00
2022-12-18T00:05:28.034Z,0.00
2022-12-18T00:10:27.940Z,0.00
2022-12-18T00:15:27.915Z,0.00
2022-12-18T00:20:27.823Z,0.00
2022-12-18T00:25:27.824Z,0.00
2022-12-18T00:30:27.711Z,0.00
2022-12-18T00:35:27.682Z,0.00
2022-12-18T00:40:27.563Z,0.00
2022-12-18T00:45:27.603Z,0.00
2022-12-18T00:50:27.503Z,0.00
2022-12-18T00:55:27.429Z,0.00
2022-12-18T01:00:27.379Z,0.00
2022-12-18T01:05:43.920Z,0.00
2022-12-18T01:10:36.330Z,0.00
2022-12-18T01:15:36.307Z,0.00
2022-12-18T01:20:36.187Z,0.00
2022-12-18T01:25:36.133Z,0.00
2022-12-18T01:30:36.115Z,0.00
2022-12-18T01:35:36.004Z,0.00
2022-12-18T01:40:35.963Z,0.00
2022-12-18T01:45:35.948Z,0.00
2022-12-18T01:50:35.843Z,0.00
2022-12-18T01:55:35.739Z,0.00
2022-12-18T02:00:35.750Z,0.00
2022-12-18T02:05:35.655Z,0.00
2022-12-18T02:10:35.580Z,0.00
2022-12-18T02:15:35.534Z,0.00
2022-12-18T02:20:35.530Z,0.00
2022-12-18T02:25:35.426Z,0.00
2022-12-18T02:30:36.328Z,0.00
2022-12-18T02:35:35.278Z,0.00
2022-12-18T02:40:35.240Z,0.00
2022-12-18T02:45:35.186Z,0.00
2022-12-18T02:50:35.100Z,0.00
2022-12-18T02:55:35.067Z,0.00
2022-12-18T03:00:34.974Z,0.00
2022-12-18T03:05:34.906Z,0.00
2022-12-18T03:10:34.855Z,0.00
2022-12-18T03:15:34.810Z,0.00
2022-12-18T03:20:34.704Z,0.00
2022-12-18T03:25:34.707Z,0.00
2022-12-18T03:30:34.654Z,0.00
2022-12-18T03:35:34.559Z,0.00
2022-12-18T03:40:34.486Z,0.00
2022-12-18T03:45:34.447Z,0.00
2022-12-18T03:50:34.364Z,0.00
2022-12-18T03:55:34.325Z,0.00
2022-12-18T04:00:34.253Z,0.00
2022-12-18T04:05:34.221Z,0.00
2022-12-18T04:10:34.130Z,0.00
2022-12-18T04:15:34.115Z,0.00
2022-12-18T04:20:33.990Z,0.00
2022-12-18T04:25:33.967Z,0.00
2022-12-18T04:30:33.883Z,0.00
2022-12-18T04:35:33.828Z,0.00
2022-12-18T04:40:33.753Z,0.00
2022-12-18T04:45:33.718Z,0.00
2022-12-18T04:50:33.662Z,0.00
2022-12-18T04:55:33.599Z,0.00
2022-12-18T05:00:33.525Z,0.00
2022-12-18T05:05:33.469Z,0.00
2022-12-18T05:10:38.000Z,0.00
2022-12-18T05:15:34.350Z,0.00
2022-12-18T05:20:33.271Z,0.00
2022-12-18T05:25:33.231Z,0.00
2022-12-18T05:30:33.165Z,0.00
2022-12-18T05:35:33.125Z,0.00
2022-12-18T05:40:33.042Z,0.00
2022-12-18T05:45:32.995Z,0.00
2022-12-18T05:50:32.911Z,0.00
2022-12-18T05:55:32.887Z,0.00
2022-12-18T06:00:32.797Z,0.00
2022-12-18T06:05:32.753Z,0.00
2022-12-18T06:10:32.695Z,0.00
2022-12-18T06:15:32.672Z,0.00
2022-12-18T06:20:33.765Z,0.00
2022-12-18T06:25:32.520Z,0.00
2022-12-18T06:30:32.447Z,0.00
2022-12-18T06:35:32.406Z,0.00
2022-12-18T06:40:32.367Z,0.00
2022-12-18T06:45:32.332Z,0.00
2022-12-18T06:50:32.190Z,4.00
2022-12-18T06:55:32.156Z,4.00
2022-12-18T07:00:47.698Z,4.00
2022-12-18T07:05:40.081Z,8.00
2022-12-18T07:10:44.741Z,24.00
2022-12-18T07:15:40.962Z,40.00
2022-12-18T07:20:39.916Z,72.00
2022-12-18T07:25:39.842Z,116.00
2022-12-18T07:30:39.775Z,156.00
2022-12-18T07:35:39.721Z,212.00
2022-12-18T07:40:39.674Z,280.00
2022-12-18T07:45:39.645Z,356.00
2022-12-18T07:50:39.545Z,440.00
2022-12-18T07:56:05.521Z,552.00
2022-12-18T08:00:40.416Z,656.00
2022-12-18T08:05:39.355Z,724.00
2022-12-18T08:10:39.330Z,840.00
2022-12-18T08:15:39.222Z,968.00
2022-12-18T08:20:39.185Z,1116.00
2022-12-18T08:25:39.120Z,1304.00
2022-12-18T08:30:39.127Z,1512.00
2022-12-18T08:35:45.449Z,1716.00
2022-12-18T08:40:39.941Z,1932.00
2022-12-18T08:45:38.918Z,2032.00
2022-12-18T08:50:38.799Z,2180.00
2022-12-18T08:55:38.780Z,2076.00
2022-12-18T09:00:38.719Z,2008.00
2022-12-18T09:05:38.593Z,2472.00
2022-12-18T09:10:43.150Z,2756.00
2022-12-18T09:15:38.500Z,2864.00
2022-12-18T09:20:38.468Z,3208.00
2022-12-18T09:25:38.400Z,3100.00
2022-12-18T09:30:38.338Z,2860.00
2022-12-18T09:35:38.286Z,2488.00
2022-12-18T09:40:38.178Z,2864.00
2022-12-18T09:45:38.129Z,3368.00
2022-12-18T09:50:38.090Z,4020.00
2022-12-18T09:55:38.010Z,3256.00
2022-12-18T10:00:37.971Z,3436.00
2022-12-18T10:05:37.884Z,3464.00
2022-12-18T10:10:37.834Z,3260.00
2022-12-18T10:15:37.763Z,3192.00
2022-12-18T10:20:37.713Z,3436.00
2022-12-18T10:25:37.635Z,3444.00
2022-12-18T10:30:37.583Z,3548.00
2022-12-18T10:35:37.507Z,3912.00
2022-12-18T10:40:37.418Z,4112.00
2022-12-18T10:45:37.348Z,4168.00
2022-12-18T10:51:09.035Z,3976.00
2022-12-18T10:55:38.228Z,3820.00
2022-12-18T11:00:37.193Z,3848.00
2022-12-18T11:05:37.169Z,3580.00
2022-12-18T11:10:37.055Z,3776.00
2022-12-18T11:15:37.053Z,3724.00
2022-12-18T11:20:36.939Z,3840.00
2022-12-18T11:25:37.804Z,3688.00
2022-12-18T11:30:36.863Z,4444.00
2022-12-18T11:35:36.736Z,3632.00
2022-12-18T11:40:41.122Z,3384.00
2022-12-18T11:45:36.637Z,3216.00
2022-12-18T11:50:36.599Z,3092.00
2022-12-18T11:55:36.460Z,3096.00
2022-12-18T12:00:36.640Z,3012.00
2022-12-18T12:05:36.330Z,2972.00
2022-12-18T12:10:36.300Z,2968.00
2022-12-18T12:15:36.227Z,3024.00
2022-12-18T12:20:36.277Z,2964.00
2022-12-18T12:25:36.145Z,2836.00
2022-12-18T12:30:36.063Z,2720.00
2022-12-18T12:35:36.004Z,2600.00
2022-12-18T12:40:57.004Z,2508.00
2022-12-18T12:45:36.847Z,2424.00
2022-12-18T12:50:35.785Z,2416.00
2022-12-18T12:55:35.687Z,2372.00
2022-12-18T13:00:35.646Z,2340.00
2022-12-18T13:05:35.565Z,2252.00
2022-12-18T13:10:35.513Z,2172.00
2022-12-18T13:15:39.290Z,2096.00
2022-12-18T13:20:35.363Z,1932.00
2022-12-18T13:25:35.294Z,1788.00
2022-12-18T13:30:35.310Z,1772.00
2022-12-18T13:35:35.181Z,1712.00
2022-12-18T13:40:35.120Z,1640.00
2022-12-18T13:45:35.066Z,1576.00
2022-12-18T13:50:36.035Z,1528.00
2022-12-18T13:55:34.913Z,1444.00
2022-12-18T14:00:34.900Z,1328.00
2022-12-18T14:05:34.769Z,1240.00
2022-12-18T14:10:48.568Z,1124.00
2022-12-18T14:15:35.681Z,1008.00
2022-12-18T14:20:34.795Z,944.00
2022-12-18T14:25:34.519Z,860.00
2022-12-18T14:30:34.567Z,764.00
2022-12-18T14:35:34.418Z,648.00
2022-12-18T14:40:34.351Z,544.00
2022-12-18T14:45:41.096Z,464.00
2022-12-18T14:50:35.433Z,396.00
2022-12-18T14:55:34.122Z,324.00
2022-12-18T15:00:34.109Z,260.00
2022-12-18T15:05:34.017Z,200.00
2022-12-18T15:10:33.972Z,148.00
2022-12-18T15:15:34.012Z,108.00
2022-12-18T15:20:33.858Z,76.00
2022-12-18T15:25:33.757Z,56.00
2022-12-18T15:30:33.779Z,36.00
2022-12-18T15:35:33.687Z,20.00
2022-12-18T15:40:33.640Z,12.00
2022-12-18T15:45:33.516Z,4.00
2022-12-18T15:50:33.461Z,4.00
2022-12-18T15:55:33.373Z,0.00
2022-12-18T16:00:33.350Z,0.00
2022-12-18T16:05:33.251Z,0.00
2022-12-18T16:10:33.198Z,0.00
2022-12-18T16:15:33.233Z,0.00
2022-12-18T16:20:33.063Z,0.00
2022-12-18T16:25:32.995Z,0.00
2022-12-18T16:30:38.338Z,0.00
2022-12-18T16:35:33.920Z,0.00
2022-12-18T16:40:32.830Z,0.00
2022-12-18T16:45:32.757Z,0.00
2022-12-18T16:50:32.810Z,0.00
2022-12-18T16:55:32.629Z,0.00
2022-12-18T17:00:32.559Z,0.00
2022-12-18T17:05:32.499Z,0.00
2022-12-18T17:10:32.456Z,0.00
2022-12-18T17:15:32.521Z,0.00
2022-12-18T17:20:32.312Z,0.00
2022-12-18T17:25:32.233Z,0.00
2022-12-18T17:30:32.183Z,0.00
2022-12-18T17:35:32.167Z,0.00
2022-12-18T17:40:32.040Z,0.00
2022-12-18T17:45:31.959Z,0.00
2022-12-18T17:50:31.923Z,0.00
2022-12-18T17:55:31.865Z,0.00
2022-12-18T18:00:31.781Z,0.00
2022-12-18T18:05:31.681Z,0.00
2022-12-18T18:10:31.681Z,0.00
2022-12-18T18:15:31.618Z,0.00
2022-12-18T18:20:31.569Z,0.00
2022-12-18T18:25:31.453Z,0.00
2022-12-18T18:30:31.410Z,0.00
2022-12-18T18:35:53.507Z,0.00
2022-12-18T18:40:32.289Z,0.00
2022-12-18T18:45:31.248Z,0.00
2022-12-18T18:50:31.157Z,0.00
2022-12-18T18:55:31.066Z,0.00
2022-12-18T19:00:31.068Z,0.00
2022-12-18T19:05:31.936Z,0.00
2022-12-18T19:10:30.898Z,0.00
2022-12-18T19:15:30.829Z,0.00
2022-12-18T19:20:30.765Z,0.00
2022-12-18T19:25:40.663Z,0.00
2022-12-18T19:30:31.674Z,0.00
2022-12-18T19:35:30.596Z,0.00
2022-12-18T19:40:30.518Z,0.00
2022-12-18T19:45:30.496Z,0.00
2022-12-18T19:50:30.416Z,0.00
2022-12-18T19:55:30.304Z,0.00
2022-12-18T20:00:31.070Z,0.00
2022-12-18T20:05:30.253Z,0.00
2022-12-18T20:10:30.136Z,0.00
2022-12-18T20:15:30.086Z,0.00
2022-12-18T20:20:30.003Z,0.00
2022-12-18T20:25:29.926Z,0.00
2022-12-18T20:30:29.868Z,0.00
2022-12-18T20:35:29.817Z,0.00
2022-12-18T20:40:29.754Z,0.00
2022-12-18T20:45:29.671Z,0.00
2022-12-18T20:50:29.643Z,0.00
2022-12-18T20:55:29.559Z,0.00
2022-12-18T21:00:29.487Z,0.00
2022-12-18T21:05:29.480Z,0.00
2022-12-18T21:10:29.415Z,0.00
2022-12-18T21:15:29.279Z,0.00
2022-12-18T21:20:29.249Z,0.00
2022-12-18T21:25:29.150Z,0.00
2022-12-18T21:30:29.118Z,0.00
2022-12-18T21:35:29.273Z,0.00
2022-12-18T21:40:28.948Z,0.00
2022-12-18T21:45:28.940Z,0.00
2022-12-18T21:50:28.865Z,0.00
2022-12-18T21:55:28.792Z,0.00
2022-12-18T22:00:28.717Z,0.00
2022-12-18T22:05:28.669Z,0.00
2022-12-18T22:10:28.588Z,0.00
2022-12-18T22:15:28.548Z,0.00
2022-12-18T22:20:29.279Z,0.00
2022-12-18T22:25:28.378Z,0.00
2022-12-18T22:30:28.323Z,0.00
2022-12-18T22:35:28.272Z,0.00
2022-12-18T22:40:28.195Z,0.00
2022-12-18T22:45:28.142Z,0.00
2022-12-18T22:50:28.078Z,0.00
2022-12-18T22:55:28.017Z,0.00
2022-12-18T23:00:27.964Z,0.00
2022-12-18T23:05:27.856Z,0.00
2022-12-18T23:10:27.838Z,0.00
2022-12-18T23:15:28.721Z,0.00
2022-12-18T23:20:27.690Z,0.00
2022-12-18T23:25:27.606Z,0.00
2022-12-18T23:30:27.563Z,0.00
2022-12-18T23:35:27.514Z,0.00
2022-12-18T23:40:27.406Z,0.00
2022-12-18T23:45:27.367Z,0.00
2022-12-18T23:50:29.611Z,0.00
2022-12-18T23:55:27.227Z,0.00
